Time;durP1;ratioP1;P1;durP2;ratioP2;P2;SDS_P1;SDS_P2;PMS_P1;PMS_P2;Temp;Humidity;BMP_temperature;BMP_pressure;BME280_temperature;BME280_humidity;BME280_pressure;Samples;Min_cycle;Max_cycle;Signal;HPM_P1;HPM_P2
2022/05/11 00:00:59;;;;;;;9.83;8.83;;;15.40;99.90;;;;;;5084259;28;20445;-75
2022/05/11 00:03:44;;;;;;;8.67;7.87;;;15.30;99.90;;;;;;5081472;28;20416;-75
2022/05/11 00:06:30;;;;;;;14.73;9.00;;;15.30;99.90;;;;;;5083913;28;20421;-74
2022/05/11 00:09:16;;;;;;;11.27;8.37;;;15.30;99.90;;;;;;5086811;28;20550;-75
2022/05/11 00:12:04;;;;;;;9.13;8.23;;;15.30;99.90;;;;;;5089612;28;20465;-74
2022/05/11 00:14:49;;;;;;;10.83;9.73;;;15.30;99.90;;;;;;5080101;28;20446;-75
2022/05/11 00:17:35;;;;;;;8.80;8.00;;;15.40;99.90;;;;;;5079062;28;20427;-75
2022/05/11 00:20:22;;;;;;;10.00;8.33;;;15.50;99.90;;;;;;5075945;28;20442;-74
2022/05/11 00:23:08;;;;;;;10.37;8.13;;;15.60;99.90;;;;;;5075783;28;21102;-75
2022/05/11 00:25:53;;;;;;;8.40;7.60;;;15.60;99.90;;;;;;5089389;28;20592;-75
2022/05/11 00:28:40;;;;;;;9.50;8.40;;;15.60;99.90;;;;;;5084837;28;20487;-75
2022/05/11 00:31:26;;;;;;;9.40;8.50;;;15.50;99.90;;;;;;5080026;28;21061;-75
2022/05/11 00:34:11;;;;;;;9.70;8.80;;;15.50;99.90;;;;;;5077280;28;20814;-75
2022/05/11 00:36:59;;;;;;;9.10;8.20;;;15.50;99.90;;;;;;5090611;28;20445;-75
2022/05/11 00:39:45;;;;;;;9.40;8.30;;;15.50;99.90;;;;;;5079856;28;20426;-74
2022/05/11 00:42:31;;;;;;;12.30;9.83;;;15.60;99.90;;;;;;5085269;28;20488;-75
2022/05/11 00:45:18;;;;;;;9.60;8.70;;;15.60;99.90;;;;;;5085370;28;20500;-74
2022/05/11 00:51:07;;;;;;;9.03;8.13;;;15.70;99.90;;;;;;5081302;28;20449;-75
2022/05/11 00:53:55;;;;;;;8.83;7.90;;;15.70;99.90;;;;;;5077629;28;20427;-75
2022/05/11 00:56:46;;;;;;;9.90;8.10;;;15.60;99.90;;;;;;5079285;28;20433;-75
2022/05/11 00:59:35;;;;;;;11.30;9.10;;;15.60;99.90;;;;;;5083956;28;20462;-75
2022/05/11 01:02:24;;;;;;;11.03;9.07;;;15.60;99.90;;;;;;5077406;28;20482;-75
2022/05/11 01:05:10;;;;;;;9.60;8.40;;;15.60;99.90;;;;;;5087939;28;20812;-74
2022/05/11 01:07:58;;;;;;;10.30;9.03;;;15.50;99.90;;;;;;5083643;28;20579;-75
2022/05/11 01:10:45;;;;;;;11.00;9.90;;;15.50;99.90;;;;;;5082164;28;20497;-74
2022/05/11 01:13:32;;;;;;;10.10;9.10;;;15.50;99.90;;;;;;5080433;28;20430;-75
2022/05/11 01:16:18;;;;;;;9.60;8.60;;;15.40;99.90;;;;;;5089057;28;20436;-75
2022/05/11 01:19:07;;;;;;;11.83;9.10;;;15.40;99.90;;;;;;5081760;28;20569;-75
2022/05/11 01:21:58;;;;;;;10.83;9.07;;;15.40;99.90;;;;;;5088993;28;20438;-75
2022/05/11 01:24:47;;;;;;;11.70;8.90;;;15.30;99.90;;;;;;5076998;28;20497;-75
2022/05/11 01:27:37;;;;;;;13.80;9.13;;;15.40;99.90;;;;;;5076352;28;20508;-75
2022/05/11 01:30:24;;;;;;;9.27;8.37;;;15.30;99.90;;;;;;5083654;28;20509;-74
2022/05/11 01:33:13;;;;;;;9.60;8.70;;;15.30;99.90;;;;;;5088018;28;21251;-74
2022/05/11 01:36:06;;;;;;;9.60;8.70;;;15.40;99.90;;;;;;5086475;28;20450;-75
2022/05/11 01:38:54;;;;;;;8.67;7.87;;;15.40;99.90;;;;;;5077445;28;20537;-74
2022/05/11 01:41:43;;;;;;;14.17;8.80;;;15.40;99.90;;;;;;5079462;28;20503;-75
2022/05/11 01:44:28;;;;;;;11.33;9.33;;;15.40;99.90;;;;;;5081578;28;20576;-74
2022/05/11 01:47:14;;;;;;;11.00;8.30;;;15.30;99.90;;;;;;5082262;28;20866;-74
2022/05/11 01:49:59;;;;;;;9.90;8.17;;;15.20;99.90;;;;;;5084248;28;22050;-75
2022/05/11 01:52:45;;;;;;;10.03;8.37;;;15.10;99.90;;;;;;5086934;28;20428;-74
2022/05/11 01:55:30;;;;;;;11.10;9.50;;;15.00;99.90;;;;;;5076270;28;20487;-75
2022/05/11 01:58:18;;;;;;;10.83;9.03;;;14.90;99.90;;;;;;5077791;28;20527;-75
2022/05/11 02:01:05;;;;;;;14.13;10.30;;;14.90;99.90;;;;;;5077470;28;20955;-75
2022/05/11 02:03:51;;;;;;;10.63;9.53;;;14.90;99.90;;;;;;5083442;28;21029;-75
2022/05/11 02:09:41;;;;;;;9.97;8.97;;;14.90;99.90;;;;;;5083915;28;20477;-75
2022/05/11 02:12:27;;;;;;;10.37;8.90;;;14.80;99.90;;;;;;5088207;28;20493;-74
2022/05/11 02:15:15;;;;;;;9.80;8.57;;;14.80;99.90;;;;;;5086282;28;20473;-75
2022/05/11 02:18:00;;;;;;;9.93;8.93;;;14.70;99.90;;;;;;5082714;28;20472;-75
2022/05/11 02:20:46;;;;;;;14.73;8.37;;;14.70;99.90;;;;;;5088924;28;20437;-75
2022/05/11 02:23:32;;;;;;;10.03;8.57;;;14.70;99.90;;;;;;5078900;28;20468;-74
2022/05/11 02:26:19;;;;;;;10.60;9.50;;;14.60;99.90;;;;;;5083320;28;20445;-75
2022/05/11 02:29:04;;;;;;;12.87;9.43;;;14.70;99.90;;;;;;5082346;28;20588;-75
2022/05/11 02:31:51;;;;;;;10.67;9.57;;;14.60;99.90;;;;;;5074068;28;20458;-75
2022/05/11 02:37:42;;;;;;;11.63;9.27;;;14.70;99.90;;;;;;5074608;28;21019;-75
2022/05/11 02:40:29;;;;;;;15.10;8.90;;;14.70;99.90;;;;;;5079618;28;20561;-75
2022/05/11 02:43:15;;;;;;;10.50;9.40;;;14.60;99.90;;;;;;5081087;28;20480;-75
2022/05/11 02:46:01;;;;;;;13.27;9.60;;;14.60;99.90;;;;;;5082428;28;20442;-75
2022/05/11 02:48:48;;;;;;;10.63;9.53;;;14.60;99.90;;;;;;5082740;28;20477;-74
2022/05/11 02:51:34;;;;;;;10.53;9.53;;;14.60;99.90;;;;;;5081611;28;20422;-75
2022/05/11 02:54:20;;;;;;;9.00;8.10;;;14.40;99.90;;;;;;5078848;28;20446;-75
2022/05/11 02:57:05;;;;;;;10.17;9.17;;;14.40;99.90;;;;;;5079904;28;20975;-75
2022/05/11 02:59:52;;;;;;;10.27;9.20;;;14.40;99.90;;;;;;5085983;28;20599;-74
2022/05/11 03:02:38;;;;;;;11.90;10.03;;;14.30;99.90;;;;;;5084502;28;20441;-74
2022/05/11 03:05:25;;;;;;;11.27;9.57;;;14.20;99.90;;;;;;5076513;28;20424;-75
2022/05/11 03:08:11;;;;;;;11.13;10.03;;;14.20;99.90;;;;;;5079442;28;20514;-75
2022/05/11 03:10:56;;;;;;;11.73;10.50;;;14.30;99.90;;;;;;5079904;28;20452;-75
2022/05/11 03:13:42;;;;;;;10.93;9.37;;;14.40;99.90;;;;;;5091881;28;20449;-74
2022/05/11 03:16:28;;;;;;;11.33;9.07;;;14.40;99.90;;;;;;5090003;28;20409;-75
2022/05/11 03:19:13;;;;;;;14.77;9.23;;;14.30;99.90;;;;;;5082742;28;20822;-75
2022/05/11 03:22:00;;;;;;;16.23;9.37;;;14.30;99.90;;;;;;5083934;28;20450;-74
2022/05/11 03:24:46;;;;;;;17.67;9.97;;;14.20;99.90;;;;;;5080452;28;20516;-75
2022/05/11 03:27:32;;;;;;;9.60;8.60;;;14.20;99.90;;;;;;5083431;28;20451;-75
2022/05/11 03:30:18;;;;;;;10.87;9.77;;;14.20;99.90;;;;;;5082791;28;21080;-75
2022/05/11 03:36:08;;;;;;;13.63;9.00;;;14.10;99.90;;;;;;5086771;28;20831;-75
2022/05/11 03:38:54;;;;;;;10.63;9.53;;;14.10;99.90;;;;;;5084359;28;20461;-74
2022/05/11 03:41:40;;;;;;;10.60;9.40;;;14.20;99.90;;;;;;5081687;28;20410;-75
2022/05/11 03:44:26;;;;;;;10.80;8.97;;;14.30;99.90;;;;;;5084344;28;20392;-75
2022/05/11 03:47:12;;;;;;;9.80;8.90;;;14.30;99.90;;;;;;5085193;28;20861;-74
2022/05/11 03:49:57;;;;;;;11.67;10.47;;;14.50;99.90;;;;;;5076935;28;20478;-74
2022/05/11 03:52:43;;;;;;;11.23;9.30;;;14.40;99.90;;;;;;5080115;28;20442;-74
2022/05/11 03:55:30;;;;;;;10.30;9.30;;;14.30;99.90;;;;;;5078565;28;20430;-75
2022/05/11 03:58:16;;;;;;;10.80;9.60;;;14.30;99.90;;;;;;5081927;28;20421;-74
2022/05/11 04:01:02;;;;;;;11.10;10.00;;;14.20;99.90;;;;;;5087101;28;20948;-74
2022/05/11 04:03:47;;;;;;;10.60;9.60;;;14.10;99.90;;;;;;5074893;28;20878;-75
2022/05/11 04:06:33;;;;;;;9.57;8.50;;;14.20;99.90;;;;;;5086968;28;20945;-74
2022/05/11 04:09:18;;;;;;;12.00;9.97;;;14.10;99.90;;;;;;5087065;28;20486;-75
2022/05/11 04:12:07;;;;;;;11.30;10.10;;;14.10;99.90;;;;;;5080960;28;20442;-74
2022/05/11 04:14:53;;;;;;;12.07;10.30;;;14.10;99.90;;;;;;5083730;28;20416;-74
2022/05/11 04:17:39;;;;;;;12.30;11.00;;;14.20;99.90;;;;;;5082644;28;20529;-74
2022/05/11 04:20:25;;;;;;;11.07;9.90;;;14.10;99.90;;;;;;5084085;28;20412;-75
2022/05/11 04:23:11;;;;;;;12.57;9.60;;;14.10;99.90;;;;;;5089811;28;20430;-74
2022/05/11 04:25:56;;;;;;;11.17;9.80;;;14.10;99.90;;;;;;5085927;28;20475;-73
2022/05/11 04:28:44;;;;;;;10.40;9.30;;;13.90;99.90;;;;;;5083198;28;20444;-74
2022/05/11 04:31:30;;;;;;;10.80;9.70;;;14.00;99.90;;;;;;5086735;28;20448;-75
2022/05/11 04:34:15;;;;;;;11.23;9.30;;;14.00;99.90;;;;;;5079234;28;20939;-74
2022/05/11 04:37:01;;;;;;;11.30;9.57;;;14.00;99.90;;;;;;5073520;28;20425;-75
2022/05/11 04:39:47;;;;;;;12.07;9.50;;;14.00;99.90;;;;;;5081420;28;20424;-74
2022/05/11 04:42:33;;;;;;;11.37;10.17;;;14.00;99.90;;;;;;5082359;28;20789;-75
2022/05/11 04:45:21;;;;;;;11.87;9.77;;;14.10;99.90;;;;;;5084223;28;20491;-75
2022/05/11 04:48:07;;;;;;;13.00;11.33;;;14.20;99.90;;;;;;5078282;28;20519;-75
2022/05/11 04:50:53;;;;;;;12.17;10.80;;;14.20;99.90;;;;;;5079006;28;20539;-75
2022/05/11 04:53:39;;;;;;;14.13;11.23;;;14.20;99.90;;;;;;5079055;28;20524;-74
2022/05/11 04:56:25;;;;;;;12.13;10.83;;;14.20;99.90;;;;;;5079624;28;20809;-75
2022/05/11 04:59:12;;;;;;;11.60;10.50;;;14.30;99.90;;;;;;5087865;28;20469;-75
2022/05/11 05:01:59;;;;;;;15.73;11.00;;;14.20;99.90;;;;;;5076387;28;20948;-74
2022/05/11 05:04:45;;;;;;;12.43;10.63;;;14.20;99.90;;;;;;5075125;28;20427;-74
2022/05/11 05:07:31;;;;;;;12.63;11.40;;;14.20;99.90;;;;;;5080634;28;20927;-75
2022/05/11 05:10:19;;;;;;;12.10;10.53;;;14.10;99.90;;;;;;5084561;28;20440;-74
2022/05/11 05:13:06;;;;;;;12.50;11.20;;;14.10;99.90;;;;;;5081584;28;20502;-74
2022/05/11 05:15:57;;;;;;;14.10;11.77;;;14.20;99.90;;;;;;5082502;28;20450;-74
2022/05/11 05:18:44;;;;;;;12.33;11.13;;;14.20;99.90;;;;;;5081373;28;21834;-74
2022/05/11 05:21:31;;;;;;;13.23;11.20;;;14.20;99.90;;;;;;5078994;28;20520;-75
2022/05/11 05:24:16;;;;;;;16.37;11.07;;;14.20;99.90;;;;;;5080306;28;20413;-74
2022/05/11 05:27:03;;;;;;;13.53;11.50;;;14.20;99.90;;;;;;5076701;28;20446;-74
2022/05/11 05:32:52;;;;;;;12.60;10.37;;;14.30;99.90;;;;;;5083058;28;20423;-75
2022/05/11 05:35:40;;;;;;;11.17;10.03;;;14.50;99.90;;;;;;5073871;28;20961;-75
2022/05/11 05:38:27;;;;;;;12.27;10.47;;;14.70;99.90;;;;;;5076351;28;21003;-74
2022/05/11 05:41:13;;;;;;;11.80;10.70;;;14.90;99.90;;;;;;5078671;28;20481;-75
2022/05/11 05:43:58;;;;;;;13.07;10.50;;;15.10;99.90;;;;;;5088706;28;20425;-74
2022/05/11 05:46:44;;;;;;;11.87;10.27;;;15.20;99.90;;;;;;5078376;28;20850;-74
2022/05/11 05:49:30;;;;;;;11.50;10.33;;;15.40;99.90;;;;;;5084235;28;20416;-74
2022/05/11 05:52:22;;;;;;;11.87;9.80;;;15.60;99.90;;;;;;5073058;28;20490;-75
2022/05/11 05:55:08;;;;;;;10.30;8.37;;;15.70;99.90;;;;;;5082840;28;20441;-74
2022/05/11 05:57:54;;;;;;;10.20;9.20;;;15.90;99.90;;;;;;5082408;28;20632;-75
2022/05/11 06:00:40;;;;;;;12.70;8.70;;;16.00;99.90;;;;;;5088212;28;20949;-75
2022/05/11 06:03:29;;;;;;;10.40;8.73;;;16.20;99.90;;;;;;5079405;28;20387;-75
2022/05/11 06:06:14;;;;;;;10.20;9.23;;;16.40;99.90;;;;;;5079566;28;20476;-76
2022/05/11 06:09:01;;;;;;;9.10;8.20;;;16.60;99.90;;;;;;5085568;28;20985;-74
2022/05/11 06:11:47;;;;;;;10.17;9.17;;;16.70;99.90;;;;;;5072887;28;20617;-76
2022/05/11 06:14:33;;;;;;;10.97;9.20;;;16.90;99.90;;;;;;5083329;28;20450;-77
2022/05/11 06:17:22;;;;;;;10.60;9.37;;;17.00;99.90;;;;;;5077930;28;21001;-76
2022/05/11 06:20:09;;;;;;;10.17;8.20;;;17.30;99.90;;;;;;5086421;28;20405;-76
2022/05/11 06:22:55;;;;;;;9.20;8.30;;;17.50;99.90;;;;;;5076171;28;20513;-76
2022/05/11 06:25:42;;;;;;;8.63;7.33;;;17.70;99.90;;;;;;5081164;28;20445;-76
2022/05/11 06:28:28;;;;;;;9.37;8.10;;;17.90;99.90;;;;;;5078877;28;20469;-76
2022/05/11 06:31:15;;;;;;;11.50;8.80;;;18.10;99.90;;;;;;5081252;28;20520;-76
2022/05/11 06:34:00;;;;;;;10.60;7.17;;;18.30;99.90;;;;;;5079460;28;20862;-77
2022/05/11 06:36:46;;;;;;;8.83;6.73;;;18.50;99.90;;;;;;5075290;28;20478;-76
2022/05/11 06:39:32;;;;;;;10.10;6.57;;;18.60;99.90;;;;;;5084331;28;20533;-76
2022/05/11 06:42:20;;;;;;;7.70;6.37;;;18.70;99.90;;;;;;5079345;28;20543;-76
2022/05/11 06:45:07;;;;;;;7.13;5.60;;;18.90;99.90;;;;;;5079327;28;20535;-76
2022/05/11 06:47:53;;;;;;;5.90;5.30;;;19.20;99.90;;;;;;5083715;28;20501;-76
2022/05/11 06:50:38;;;;;;;5.77;4.50;;;19.40;99.90;;;;;;5093697;28;20548;-76
2022/05/11 06:53:24;;;;;;;6.30;5.30;;;19.60;96.30;;;;;;5087905;28;20795;-76
2022/05/11 06:59:21;;;;;;;6.03;5.43;;;20.00;95.40;;;;;;5105592;22;20875;-70
2022/05/11 07:02:07;;;;;;;8.40;5.10;;;20.10;93.70;;;;;;5058622;28;20505;-70
2022/05/11 07:04:53;;;;;;;7.40;5.70;;;20.30;94.90;;;;;;5060199;28;20450;-70
2022/05/11 07:07:39;;;;;;;5.83;4.60;;;20.50;93.40;;;;;;5069609;28;20948;-70
2022/05/11 07:10:25;;;;;;;6.40;4.67;;;20.50;90.50;;;;;;5069027;28;20466;-70
2022/05/11 07:13:11;;;;;;;6.93;4.90;;;20.70;90.00;;;;;;5071928;28;20437;-71
2022/05/11 07:15:58;;;;;;;8.50;5.57;;;20.80;86.00;;;;;;5068944;28;20459;-71
2022/05/11 07:18:43;;;;;;;6.70;5.20;;;21.00;82.30;;;;;;5069764;28;20536;-71
2022/05/11 07:21:29;;;;;;;7.20;5.77;;;21.00;84.80;;;;;;5069242;28;21054;-71
2022/05/11 07:24:15;;;;;;;6.13;5.00;;;21.10;81.20;;;;;;5067833;28;20990;-71
2022/05/11 07:27:01;;;;;;;5.93;4.90;;;21.20;78.90;;;;;;5070883;28;20573;-71
2022/05/11 07:29:47;;;;;;;7.17;4.50;;;21.20;78.60;;;;;;5070231;28;20946;-71
2022/05/11 07:32:34;;;;;;;7.07;5.07;;;21.40;79.70;;;;;;5066134;28;20475;-69
2022/05/11 07:35:20;;;;;;;6.10;4.60;;;21.40;74.60;;;;;;5067846;28;20536;-70
2022/05/11 07:38:08;;;;;;;7.93;4.83;;;21.30;73.40;;;;;;5067591;28;20454;-70
2022/05/11 07:40:54;;;;;;;12.07;5.30;;;21.30;73.00;;;;;;5071419;28;20410;-70
2022/05/11 07:43:40;;;;;;;6.10;5.07;;;21.30;72.40;;;;;;5070975;28;20532;-70
2022/05/11 07:46:33;;;;;;;13.23;5.70;;;21.30;73.60;;;;;;5071778;28;20959;-70
2022/05/11 07:49:22;;;;;;;7.10;4.87;;;21.40;72.20;;;;;;5061193;28;20547;-70
2022/05/11 07:52:09;;;;;;;6.53;5.83;;;21.40;75.70;;;;;;5072473;28;20590;-70
2022/05/11 07:54:54;;;;;;;6.77;5.20;;;21.50;75.30;;;;;;5061631;28;20444;-71
2022/05/11 08:00:43;;;;;;;6.50;4.63;;;21.70;76.00;;;;;;5066867;28;20501;-71
2022/05/11 08:03:29;;;;;;;6.00;5.03;;;21.80;73.60;;;;;;5061334;28;20466;-71
2022/05/11 08:06:18;;;;;;;6.47;5.30;;;21.80;73.30;;;;;;5068125;28;20936;-71
2022/05/11 08:09:04;;;;;;;8.27;7.00;;;21.90;73.00;;;;;;5069527;28;20991;-71
2022/05/11 08:11:52;;;;;;;7.00;5.47;;;21.90;70.40;;;;;;5071815;28;20620;-71
2022/05/11 08:14:37;;;;;;;7.47;6.10;;;22.00;73.00;;;;;;5062841;28;20442;-71
2022/05/11 08:17:26;;;;;;;6.60;5.53;;;22.10;75.00;;;;;;5067949;28;20423;-71
2022/05/11 08:20:16;;;;;;;8.27;5.47;;;22.20;71.80;;;;;;5069560;28;20478;-71
2022/05/11 08:23:04;;;;;;;7.07;6.37;;;22.30;70.80;;;;;;5068313;28;20451;-71
2022/05/11 08:25:54;;;;;;;7.63;4.80;;;22.30;70.10;;;;;;5067898;28;20919;-71
2022/05/11 08:28:40;;;;;;;9.40;5.83;;;22.40;69.40;;;;;;5065790;28;20462;-71
2022/05/11 08:34:29;;;;;;;5.60;5.00;;;22.50;67.00;;;;;;5064764;28;20442;-71
2022/05/11 08:37:15;;;;;;;8.50;5.67;;;22.50;68.50;;;;;;5069978;28;20466;-71
2022/05/11 08:40:03;;;;;;;8.50;5.40;;;22.70;71.20;;;;;;5065065;28;20467;-71
2022/05/11 08:42:48;;;;;;;7.63;4.77;;;22.70;68.90;;;;;;5068371;28;20446;-70
2022/05/11 08:45:40;;;;;;;8.67;5.37;;;22.90;67.30;;;;;;5064794;28;20439;-70
2022/05/11 08:48:33;;;;;;;6.80;5.00;;;23.00;66.20;;;;;;5063804;28;20458;-71
2022/05/11 08:51:27;;;;;;;8.13;4.97;;;22.90;64.10;;;;;;5069544;28;20463;-70
2022/05/11 08:54:16;;;;;;;6.10;5.50;;;22.90;65.10;;;;;;5065452;28;20453;-70
2022/05/11 08:57:09;;;;;;;5.73;5.07;;;23.00;65.50;;;;;;5068779;28;20469;-70
2022/05/11 09:00:00;;;;;;;5.83;4.93;;;23.00;64.30;;;;;;5067397;28;20479;-71
2022/05/11 09:02:52;;;;;;;12.23;5.40;;;23.10;66.60;;;;;;5068627;28;20667;-70
2022/05/11 09:05:38;;;;;;;6.77;5.27;;;23.20;64.50;;;;;;5061682;28;20459;-71
2022/05/11 09:08:23;;;;;;;9.77;5.10;;;23.30;66.00;;;;;;5062919;28;20450;-71
2022/05/11 09:11:14;;;;;;;5.87;5.27;;;23.50;66.90;;;;;;5069247;28;20588;-70
2022/05/11 09:14:02;;;;;;;8.80;5.70;;;23.60;65.00;;;;;;5064623;28;20532;-71
2022/05/11 09:16:51;;;;;;;6.67;5.27;;;23.70;62.60;;;;;;5063091;28;20963;-71
2022/05/11 09:19:36;;;;;;;6.60;5.77;;;23.70;60.80;;;;;;5069178;28;21199;-70
2022/05/11 09:22:26;;;;;;;8.00;6.10;;;23.90;60.00;;;;;;5063778;28;20796;-71
2022/05/11 09:25:20;;;;;;;13.63;7.63;;;23.80;60.50;;;;;;5065507;28;20454;-70
2022/05/11 09:28:15;;;;;;;6.20;4.73;;;23.70;59.10;;;;;;5068421;28;20450;-70
2022/05/11 09:31:05;;;;;;;7.90;5.50;;;23.80;59.40;;;;;;5067202;28;20818;-70
2022/05/11 09:33:59;;;;;;;15.93;6.20;;;23.90;61.80;;;;;;5067927;28;20497;-70
2022/05/11 09:36:56;;;;;;;6.47;5.80;;;24.00;63.00;;;;;;5062765;28;20605;-71
2022/05/11 09:39:52;;;;;;;10.20;5.03;;;24.20;60.50;;;;;;5066240;28;20949;-70
2022/05/11 09:42:50;;;;;;;6.67;5.50;;;24.20;57.80;;;;;;5060370;28;20497;-70
2022/05/11 09:45:43;;;;;;;5.80;4.80;;;24.30;57.90;;;;;;5059021;28;20455;-70
2022/05/11 09:48:37;;;;;;;9.90;5.10;;;24.40;60.40;;;;;;5063225;28;20453;-70
2022/05/11 09:51:25;;;;;;;6.27;4.67;;;24.50;62.30;;;;;;5067203;28;20510;-70
2022/05/11 09:54:43;;;;;;;6.10;4.93;;;24.60;58.20;;;;;;5060903;28;20439;-70
2022/05/11 09:57:29;;;;;;;6.70;4.93;;;24.70;58.80;;;;;;5036330;28;20982;-70
2022/05/11 10:00:21;;;;;;;5.50;4.80;;;24.80;58.00;;;;;;5067735;28;20848;-70
2022/05/11 10:03:12;;;;;;;7.27;5.37;;;24.90;58.60;;;;;;5059760;28;20467;-70
2022/05/11 10:06:00;;;;;;;4.90;4.40;;;25.00;57.70;;;;;;5061987;28;20438;-72
2022/05/11 10:08:48;;;;;;;13.50;4.83;;;25.00;56.50;;;;;;5063297;28;20458;-72
2022/05/11 10:11:39;;;;;;;7.30;5.00;;;25.10;56.50;;;;;;5064813;28;20830;-72
2022/05/11 10:24:06;;;;;;;8.70;4.47;;;25.60;54.60;;;;;;5072707;28;21073;-72
2022/05/11 10:27:00;;;;;;;5.97;4.43;;;25.70;49.20;;;;;;5064053;28;20431;-72
2022/05/11 10:30:03;;;;;;;6.73;4.10;;;25.70;51.40;;;;;;5070658;28;20449;-72
2022/05/11 10:33:04;;;;;;;5.10;4.00;;;25.70;48.10;;;;;;5064858;28;20536;-72
2022/05/11 10:36:00;;;;;;;4.70;4.10;;;25.80;46.40;;;;;;5072201;28;20451;-72
2022/05/11 10:38:58;;;;;;;8.53;4.87;;;25.80;46.80;;;;;;5071819;28;20912;-72
2022/05/11 10:41:49;;;;;;;5.50;4.60;;;25.90;47.30;;;;;;5062751;28;20443;-70
2022/05/11 10:44:48;;;;;;;4.97;4.33;;;26.10;46.40;;;;;;5070694;28;20803;-70
2022/05/11 10:48:00;;;;;;;6.83;4.70;;;26.20;48.00;;;;;;5061942;28;20817;-70
2022/05/11 10:50:53;;;;;;;11.03;6.40;;;26.30;46.10;;;;;;5071046;28;20453;-70
2022/05/11 10:53:43;;;;;;;6.70;4.93;;;26.50;46.20;;;;;;5068143;28;20962;-70
2022/05/11 10:56:47;;;;;;;9.33;5.60;;;26.50;44.10;;;;;;5072315;28;20969;-73
